Draughon Miller Central Texas Regional Airport
KTPL : now visible

Airfield :











YOU CAN JOIN US ON...

 
LOGIN :

Register | Disclaimer

   EN    FR    IT 

 









Legend :    VFR   Marginal VFR   IFR   Intensive IFR   Very Intensive IFR
Visi :
Ceiling :
>= 8 km
>= 3000ft
5 to 8 km
1000 to 3000 ft
1500m to 5 km
500 to 1000 ft
800 to 1500m
200 to 500 ft
< 800m
< 200 ft
Symbols :   Thunderstorms  Fog  Heavy snow  Heavy precipitations  Wind > 20 kt







- Airport Elevation : 682 ft
- IATA code : TPL


KTPL - Draughon Miller Central Texas Regional

CURRENT METAR :
  • 181051Z AUTO 32004KT 10SM CLR 21/21 A2991 RMK AO2 SLP115 T02060206

EXPIRED METARs :
  • 180951Z AUTO 36004KT 10SM CLR 21/21 A2990 RMK AO2 SLP114 T02110211
  • 180851Z AUTO 01004KT 10SM CLR 22/22 A2990 RMK AO2 SLP114 T02170217 58007

TAF N/A
No reported NOTAMs for that airfield.



MET'MAP, your aeronautical weather chart ! - Copyright ORBIFLY December 2007 - Disclaimer

ORBIFLY MET'MAP TEAM :

Programming & Development : Alexandra Zaïnal
Concept & Development : Baudouin d'Aumeries
Co-Development & Prog : Marc-Olivier Méhu
Technical & hardware support : Manuel Goepfert

Contact : metmap@orbifly.com




SOURCES & CREDITS :

   NOAA       Earth
Advisory